Πλησιέστερες Αναφορές METAR

 

LGTS - Thessaloniki/Makedonia-Elev 7m
Απόσταση από σταθμό: Ν 13km
Ενημερώθηκε: 20/04/2019 00:50
Διάσπαρτα Νέφη
Διάσπαρτα Νέφη
 Ανεμοι από ΒΒΑ
Ανεμος: ΒΒΑ 9 km/h
Θερμοκρασία: 13°C
Σημείο Δρόσου: 9°C
Υγρασία: 77%
Βαρόμετρο: 1023 hPa
Νέφωση: Διάσπαρτα Νέφη
Ορατότητα: 10 km
Λεπτομέρειες Νεφών: Διάσπαρτα Νέφη 610 m
2019/04/19 21:50 LGTS 192150Z 03005KT 9999 FEW020 13/09 Q1023 NOSIG
LGAV - Athens/Elef. Venizelos-Elev 94m
Απόσταση από σταθμό: ΝΝΑ 312km
Ενημερώθηκε: 20/04/2019 00:50
Διάσπαρτα Νέφη
Διάσπαρτα Νέφη
 Ανεμοι από Δ
Ανεμος: Δ 7 km/h
Θερμοκρασία: 8°C
Δείκτης Ψύχρας: 7°C
Σημείο Δρόσου: 4°C
Υγρασία: 76%
Βαρόμετρο: 1023 hPa
Νέφωση: Διάσπαρτα Νέφη
Ορατότητα: 10 km
Λεπτομέρειες Νεφών: Διάσπαρτα Νέφη 914 m
2019/04/19 21:50 LGAV 192150Z 27004KT 230V300 9999 FEW030 08/04 Q1023 NOSIG
 
LGAL - Alexandroupolis-Elev 3m
Απόσταση από σταθμό: Α 251km
Ενημερώθηκε: 19/04/2019 22:20
ΜΗ Ενημερωμένο METAR!
Σχεδόν νεφελώδης
Σχεδόν νεφελώδης
 Ανεμοι από άπνοια
Ανεμος: άπνοια
Θερμοκρασία: 9°C
Σημείο Δρόσου: 8°C
Υγρασία: 94%
Βαρόμετρο: 1024 hPa
Νέφωση: Σχεδόν νεφελώδης
Ορατότητα: 10 km
Λεπτομέρειες Νεφών: Διάσπαρτα Νέφη 549 m
Σχεδόν νεφελώδης 610 m
2019/04/19 19:20 LGAL 191920Z 00000KT 9999 FEW018TCU BKN020 09/08 Q1024
LGKV - Kavala/Crysoupolis-Elev 5m
Απόσταση από σταθμό: ΑΒΑ 144km
Ενημερώθηκε: 19/04/2019 23:20
ΜΗ Ενημερωμένο METAR!
Σχεδόν νεφελώδης
Σχεδόν νεφελώδης
 Ανεμοι από ΑΝΑ
Ανεμος: ΑΝΑ 20 km/h
Θερμοκρασία: 11°C
Σημείο Δρόσου: 6°C
Υγρασία: 72%
Βαρόμετρο: 1024 hPa
Νέφωση: Σχεδόν νεφελώδης
Ορατότητα: 10 km
Λεπτομέρειες Νεφών: Διάσπαρτα Νέφη 914 m
Σχεδόν νεφελώδης 2438 m
2019/04/19 20:20 LGKV 192020Z 11011KT 9999 FEW030 BKN080 11/06 Q1024
 
LGSK - Skiathos Island-Elev 15m
Απόσταση από σταθμό: ΝΝΑ 168km
Ενημερώθηκε: 19/04/2019 20:50
ΜΗ Ενημερωμένο METAR!
Αίθριος
Αίθριος
 Ανεμοι από Ν
Ανεμος: Ν 7 km/h
Θερμοκρασία: 13°C
Σημείο Δρόσου: 7°C
Υγρασία: 67%
Βαρόμετρο: 1022 hPa
Περίληψη: Αίθριος
Ορατότητα: πάνω από 10 km
2019/04/19 17:50 LGSK 191750Z 19004KT CAVOK 13/07 Q1022
LGLM - Limnos Island-Elev 5m
Απόσταση από σταθμό: ΑΝΑ 210km
Ενημερώθηκε: 20/04/2019 00:50
Μερικώς νεφελώδης
Μερικώς νεφελώδης
 Ανεμοι από άπνοια
Ανεμος: άπνοια
Θερμοκρασία: 10°C
Σημείο Δρόσου: 6°C
Υγρασία: 76%
Βαρόμετρο: 1023 hPa
Νέφωση: Μερικώς νεφελώδης
Ορατότητα: 10 km
Λεπτομέρειες Νεφών: Μερικώς νεφελώδης 610 m
2019/04/19 21:50 LGLM 192150Z 00000KT 9999 SCT020 10/06 Q1023
 
LGMT - Mitilini Island-Elev 17m
Απόσταση από σταθμό: ΑΝΑ 358km
Ενημερώθηκε: 19/04/2019 22:50
ΜΗ Ενημερωμένο METAR!
Αίθριος
Αίθριος
 Ανεμοι από άπνοια
Ανεμος: άπνοια
Θερμοκρασία: 13°C
Σημείο Δρόσου: 4°C
Υγρασία: 55%
Βαρόμετρο: 1022 hPa
Περίληψη: Αίθριος
Ορατότητα: πάνω από 10 km
2019/04/19 19:50 LGMT 191950Z 00000KT CAVOK 13/04 Q1022
LGSY - Skiros Island-Elev 15m
Απόσταση από σταθμό: ΝΑ 227km
Ενημερώθηκε: 19/04/2019 23:50
ΜΗ Ενημερωμένο METAR!
Ασθενής βροχή, Διάσπαρτα νέφη
Ασθενής βροχή, Διάσπαρτα νέφη
 Ανεμοι από άπνοια
Ανεμος: άπνοια
Θερμοκρασία: 11°C
Σημείο Δρόσου: 6°C
Υγρασία: 72%
Βαρόμετρο: 1024 hPa
Περίληψη: Ασθενής βροχή
Νέφωση: Διάσπαρτα Νέφη
Ορατότητα: 8 km
Λεπτομέρειες Νεφών: Διάσπαρτα Νέφη 762 m
2019/04/19 20:50 LGSY 192050Z 00000KT 8000 -RA FEW025 11/06 Q1024 RMK SCT080 BLU
 
LGKZ - Kozani-Elev 628m
Απόσταση από σταθμό: ΔΝΔ 102km
Ενημερώθηκε: 19/04/2019 14:50
ΜΗ Ενημερωμένο METAR!
Μερικώς νεφελώδης
Μερικώς νεφελώδης
 Ανεμοι από άπνοια
Ανεμος: άπνοια
Θερμοκρασία: 16°C
Σημείο Δρόσου: 3°C
Υγρασία: 42%
Βαρόμετρο: 1024 hPa
Νέφωση: Μερικώς νεφελώδης
Ορατότητα: 10 km
Λεπτομέρειες Νεφών: Διάσπαρτα Νέφη 762 m
Μερικώς νεφελώδης 2134 m
2019/04/19 11:50 LGKZ 191150Z 00000KT 9999 FEW025 SCT070 16/03 Q1024
LGIO - Ioannina-Elev 476m
Απόσταση από σταθμό: ΔΝΔ 209km
Ενημερώθηκε: 19/04/2019 22:20
ΜΗ Ενημερωμένο METAR!
Μερικώς νεφελώδης
Μερικώς νεφελώδης
 Ανεμοι από μεταβλητός
Ανεμος: μεταβλητός 0 km/h
Θερμοκρασία: 12°C
Σημείο Δρόσου: 7°C
Υγρασία: 72%
Βαρόμετρο: 1023 hPa
Νέφωση: Μερικώς νεφελώδης
Ορατότητα: 10 km
Λεπτομέρειες Νεφών: Μερικώς νεφελώδης 1067 m
2019/04/19 19:20 LGIO 191920Z /////KT 9999 SCT035 12/07 Q1023
 
LGZA - Zakinthos-Elev 3m
Απόσταση από σταθμό: ΝΝΔ 367km
Ενημερώθηκε: 19/04/2019 20:50
ΜΗ Ενημερωμένο METAR!
Διάσπαρτα Νέφη
Διάσπαρτα Νέφη
 Ανεμοι από μεταβλητός
Ανεμος: μεταβλητός 4 km/h
Θερμοκρασία: 15°C
Σημείο Δρόσου: 9°C
Υγρασία: 68%
Βαρόμετρο: 1024 hPa
Νέφωση: Διάσπαρτα Νέφη
Ορατότητα: 10 km
Λεπτομέρειες Νεφών: Διάσπαρτα Νέφη 762 m
2019/04/19 17:50 LGZA 191750Z VRB02KT 9999 FEW025 15/09 Q1024
LGKR - Corfu Island-Elev 2m
Απόσταση από σταθμό: ΔΝΔ 282km
Ενημερώθηκε: 20/04/2019 00:50
Αίθριος
Αίθριος
 Ανεμοι από Δ
Ανεμος: Δ 6 km/h
Θερμοκρασία: 13°C
Σημείο Δρόσου: 10°C
Υγρασία: 82%
Βαρόμετρο: 1023 hPa
Περίληψη: Αίθριος
Ορατότητα: πάνω από 10 km
2019/04/19 21:50 LGKR 192150Z 27003KT CAVOK 13/10 Q1023 NOSIG
 
LGSO - Syros Island-Elev 72m
Απόσταση από σταθμό: ΝΝΑ 397km
Ενημερώθηκε: 20/04/2019 00:50
Μερικώς νεφελώδης
Μερικώς νεφελώδης
 Ανεμοι από Δ
Ανεμος: Δ 7 km/h
Θερμοκρασία: 12°C
Σημείο Δρόσου: 3°C
Υγρασία: 54%
Βαρόμετρο: 1022 hPa
Νέφωση: Μερικώς νεφελώδης
Ορατότητα: 10 km
Λεπτομέρειες Νεφών: Μερικώς νεφελώδης 610 m
2019/04/19 21:50 LGSO 192150Z 28004KT 9999 SCT020 12/03 Q1022
LGMK - Mikonos Island-Elev 123m
Απόσταση από σταθμό: ΝΝΑ 412km
Ενημερώθηκε: 19/04/2019 23:50
ΜΗ Ενημερωμένο METAR!
Διάσπαρτα Νέφη
Διάσπαρτα Νέφη
 Ανεμοι από ΒΒΔ
Ανεμος: ΒΒΔ 19 km/h
Θερμοκρασία: 12°C
Σημείο Δρόσου: 4°C
Υγρασία: 58%
Βαρόμετρο: 1022 hPa
Νέφωση: Διάσπαρτα Νέφη
Ορατότητα: 10 km
Λεπτομέρειες Νεφών: Διάσπαρτα Νέφη 610 m
2019/04/19 20:50 LGMK 192050Z 34010KT 9999 FEW020 12/04 Q1022
 
LGSR - Santorini Island-Elev 40m
Απόσταση από σταθμό: ΝΝΑ 520km
Ενημερώθηκε: 20/04/2019 00:50
Διάσπαρτα Νέφη
Διάσπαρτα Νέφη
 Ανεμοι από Β
Ανεμος: Β 33 km/h
Θερμοκρασία: 13°C
Σημείο Δρόσου: 6°C
Υγρασία: 63%
Βαρόμετρο: 1022 hPa
Νέφωση: Διάσπαρτα Νέφη
Ορατότητα: 10 km
Λεπτομέρειες Νεφών: Διάσπαρτα Νέφη 762 m
2019/04/19 21:50 LGSR 192150Z 36018KT 9999 FEW025 13/06 Q1022
LGKL - Kalamata-Elev 8m
Απόσταση από σταθμό: Ν 405km
Ενημερώθηκε: 20/04/2019 00:50
Αίθριος
Αίθριος
 Ανεμοι από ΒΒΔ
Ανεμος: ΒΒΔ 9 km/h
Θερμοκρασία: 10°C
Δείκτης Ψύχρας: 9°C
Σημείο Δρόσου: 8°C
Υγρασία: 88%
Βαρόμετρο: 1024 hPa
Περίληψη: Αίθριος
Ορατότητα: πάνω από 10 km
2019/04/19 21:50 LGKL 192150Z 34005KT CAVOK 10/08 Q1024
 
LGIR - Iraklion/Crete-Elev 5m
Απόσταση από σταθμό: ΝΝΑ 622km
Ενημερώθηκε: 20/04/2019 00:50
Μερικώς νεφελώδης
Μερικώς νεφελώδης
 Ανεμοι από ΒΔ
Ανεμος: ΒΔ 33 km/h
Θερμοκρασία: 14°C
Σημείο Δρόσου: 7°C
Υγρασία: 63%
Βαρόμετρο: 1022 hPa
Νέφωση: Μερικώς νεφελώδης
Ορατότητα: 10 km
Λεπτομέρειες Νεφών: Διάσπαρτα Νέφη 762 m
Μερικώς νεφελώδης 914 m
2019/04/19 21:50 LGIR 192150Z 32018KT 9999 FEW025 SCT030 14/07 Q1022 NOSIG
LGRP - Rhodes-Elev 5m
Απόσταση από σταθμό: ΝΑ 649km
Ενημερώθηκε: 20/04/2019 00:50
Διάσπαρτα Νέφη
Διάσπαρτα Νέφη
 Ανεμοι από ΔΒΔ
Ανεμος: ΔΒΔ 22 km/h
Θερμοκρασία: 15°C
Σημείο Δρόσου: 6°C
Υγρασία: 55%
Βαρόμετρο: 1016 hPa
Νέφωση: Διάσπαρτα Νέφη
Ορατότητα: 10 km
Λεπτομέρειες Νεφών: Διάσπαρτα Νέφη 610 m
2019/04/19 21:50 LGRP 192150Z 29012KT 9999 FEW020 15/06 Q1016 NOSIG
 
LWOH - Ohrid/FYROM-Elev 761m
Απόσταση από σταθμό: ΔΒΔ 188km
Ενημερώθηκε: 19/04/2019 22:00
ΜΗ Ενημερωμένο METAR!
Μερικώς νεφελώδης
Μερικώς νεφελώδης
 Ανεμοι από ΒΒΑ
Ανεμος: ΒΒΑ 4 km/h
Θερμοκρασία: 10°C
Σημείο Δρόσου: -1°C
Υγρασία: 47%
Βαρόμετρο: 1024 hPa
Νέφωση: Μερικώς νεφελώδης
Ορατότητα: 10 km
Λεπτομέρειες Νεφών: Μερικώς νεφελώδης 1219 m
2019/04/19 19:00 LWOH 191900Z 02002KT 9999 SCT040 10/M01 Q1024
LBSF - Sofia/Bulgaria-Elev 595m
Απόσταση από σταθμό: Β 227km
Ενημερώθηκε: 20/04/2019 01:00
Διάσπαρτα Νέφη
Διάσπαρτα Νέφη
 Ανεμοι από μεταβλητός
Ανεμος: μεταβλητός 4 km/h
Θερμοκρασία: 8°C
Σημείο Δρόσου: 6°C
Υγρασία: 87%
Βαρόμετρο: 1025 hPa
Νέφωση: Διάσπαρτα Νέφη
Ορατότητα: 10 km
Λεπτομέρειες Νεφών: Διάσπαρτα Νέφη 1981 m
2019/04/19 22:00 LBSF 192200Z VRB02KT 9999 FEW065 08/06 Q1025 NOSIG